sensor_id;sensor_type;location;lat;lon;timestamp;P1;durP1;ratioP1;P2;durP2;ratioP2
33505;SDS011;19843;51.040;13.782;2023-12-20T00:00:36;2.35;;;1.80;;
33505;SDS011;19843;51.040;13.782;2023-12-20T00:03:04;1.67;;;1.58;;
33505;SDS011;19843;51.040;13.782;2023-12-20T00:05:31;1.55;;;1.27;;
33505;SDS011;19843;51.040;13.782;2023-12-20T00:07:59;1.80;;;1.30;;
33505;SDS011;19843;51.040;13.782;2023-12-20T00:10:28;1.58;;;1.20;;
33505;SDS011;19843;51.040;13.782;2023-12-20T00:12:56;1.85;;;1.40;;
33505;SDS011;19843;51.040;13.782;2023-12-20T00:15:23;2.55;;;1.73;;
33505;SDS011;19843;51.040;13.782;2023-12-20T00:17:50;1.92;;;1.50;;
33505;SDS011;19843;51.040;13.782;2023-12-20T00:20:18;1.50;;;1.30;;
33505;SDS011;19843;51.040;13.782;2023-12-20T00:22:45;1.38;;;1.23;;
33505;SDS011;19843;51.040;13.782;2023-12-20T00:25:13;3.05;;;1.45;;
33505;SDS011;19843;51.040;13.782;2023-12-20T00:27:42;1.88;;;1.45;;
33505;SDS011;19843;51.040;13.782;2023-12-20T00:30:10;1.27;;;1.17;;
33505;SDS011;19843;51.040;13.782;2023-12-20T00:32:38;1.63;;;1.40;;
33505;SDS011;19843;51.040;13.782;2023-12-20T00:35:07;2.28;;;1.60;;
33505;SDS011;19843;51.040;13.782;2023-12-20T00:37:35;1.70;;;1.33;;
33505;SDS011;19843;51.040;13.782;2023-12-20T00:40:02;1.00;;;0.88;;
33505;SDS011;19843;51.040;13.782;2023-12-20T00:42:31;1.35;;;1.00;;
33505;SDS011;19843;51.040;13.782;2023-12-20T00:45:00;1.20;;;1.10;;
33505;SDS011;19843;51.040;13.782;2023-12-20T00:47:27;1.13;;;1.02;;
33505;SDS011;19843;51.040;13.782;2023-12-20T00:49:55;1.38;;;1.00;;
33505;SDS011;19843;51.040;13.782;2023-12-20T00:52:21;1.63;;;1.20;;
33505;SDS011;19843;51.040;13.782;2023-12-20T00:54:49;1.52;;;1.38;;
33505;SDS011;19843;51.040;13.782;2023-12-20T00:57:16;1.30;;;1.05;;
33505;SDS011;19843;51.040;13.782;2023-12-20T00:59:44;1.15;;;1.00;;
33505;SDS011;19843;51.040;13.782;2023-12-20T01:02:13;1.10;;;0.80;;
33505;SDS011;19843;51.040;13.782;2023-12-20T01:04:40;2.03;;;1.30;;
33505;SDS011;19843;51.040;13.782;2023-12-20T01:07:08;1.30;;;1.10;;
33505;SDS011;19843;51.040;13.782;2023-12-20T01:09:35;0.80;;;0.80;;
33505;SDS011;19843;51.040;13.782;2023-12-20T01:12:03;1.52;;;1.08;;
33505;SDS011;19843;51.040;13.782;2023-12-20T01:14:31;1.23;;;0.90;;
33505;SDS011;19843;51.040;13.782;2023-12-20T01:16:59;1.00;;;0.90;;
33505;SDS011;19843;51.040;13.782;2023-12-20T01:19:28;0.77;;;0.77;;
33505;SDS011;19843;51.040;13.782;2023-12-20T01:21:56;1.02;;;0.90;;
33505;SDS011;19843;51.040;13.782;2023-12-20T01:24:23;0.82;;;0.82;;
33505;SDS011;19843;51.040;13.782;2023-12-20T01:26:51;0.73;;;0.73;;
33505;SDS011;19843;51.040;13.782;2023-12-20T01:29:18;1.17;;;0.85;;
33505;SDS011;19843;51.040;13.782;2023-12-20T01:31:45;0.93;;;0.93;;
33505;SDS011;19843;51.040;13.782;2023-12-20T01:34:13;0.82;;;0.82;;
33505;SDS011;19843;51.040;13.782;2023-12-20T01:36:42;0.73;;;0.73;;
33505;SDS011;19843;51.040;13.782;2023-12-20T01:39:10;0.88;;;0.82;;
33505;SDS011;19843;51.040;13.782;2023-12-20T01:41:52;1.27;;;0.70;;
33505;SDS011;19843;51.040;13.782;2023-12-20T01:44:20;1.80;;;1.10;;
33505;SDS011;19843;51.040;13.782;2023-12-20T01:46:48;0.60;;;0.60;;
33505;SDS011;19843;51.040;13.782;2023-12-20T01:49:15;0.77;;;0.77;;
33505;SDS011;19843;51.040;13.782;2023-12-20T01:51:44;0.75;;;0.75;;
33505;SDS011;19843;51.040;13.782;2023-12-20T01:54:12;0.80;;;0.80;;
33505;SDS011;19843;51.040;13.782;2023-12-20T01:56:40;0.63;;;0.63;;
33505;SDS011;19843;51.040;13.782;2023-12-20T01:59:08;0.70;;;0.70;;
33505;SDS011;19843;51.040;13.782;2023-12-20T02:01:36;1.30;;;1.30;;
33505;SDS011;19843;51.040;13.782;2023-12-20T02:04:03;0.70;;;0.70;;
33505;SDS011;19843;51.040;13.782;2023-12-20T02:06:31;0.90;;;0.80;;
33505;SDS011;19843;51.040;13.782;2023-12-20T02:09:02;0.63;;;0.55;;
33505;SDS011;19843;51.040;13.782;2023-12-20T02:11:30;2.85;;;0.73;;
33505;SDS011;19843;51.040;13.782;2023-12-20T02:13:57;0.82;;;0.82;;
33505;SDS011;19843;51.040;13.782;2023-12-20T02:16:25;0.80;;;0.80;;
33505;SDS011;19843;51.040;13.782;2023-12-20T02:18:52;0.70;;;0.70;;
33505;SDS011;19843;51.040;13.782;2023-12-20T02:21:25;0.60;;;0.60;;
33505;SDS011;19843;51.040;13.782;2023-12-20T02:23:58;0.60;;;0.60;;
33505;SDS011;19843;51.040;13.782;2023-12-20T02:26:26;0.75;;;0.75;;
33505;SDS011;19843;51.040;13.782;2023-12-20T02:28:53;0.60;;;0.52;;
33505;SDS011;19843;51.040;13.782;2023-12-20T02:31:22;0.70;;;0.70;;
33505;SDS011;19843;51.040;13.782;2023-12-20T02:33:50;0.60;;;0.60;;
33505;SDS011;19843;51.040;13.782;2023-12-20T02:36:17;0.50;;;0.50;;
33505;SDS011;19843;51.040;13.782;2023-12-20T02:38:46;0.50;;;0.50;;
33505;SDS011;19843;51.040;13.782;2023-12-20T02:41:14;0.55;;;0.55;;
33505;SDS011;19843;51.040;13.782;2023-12-20T02:43:44;0.60;;;0.60;;
33505;SDS011;19843;51.040;13.782;2023-12-20T02:46:13;2.05;;;0.80;;
33505;SDS011;19843;51.040;13.782;2023-12-20T02:48:43;0.60;;;0.60;;
33505;SDS011;19843;51.040;13.782;2023-12-20T02:51:10;0.73;;;0.50;;
33505;SDS011;19843;51.040;13.782;2023-12-20T02:53:38;0.68;;;0.60;;
33505;SDS011;19843;51.040;13.782;2023-12-20T02:56:07;0.50;;;0.50;;
33505;SDS011;19843;51.040;13.782;2023-12-20T02:58:34;0.47;;;0.47;;
33505;SDS011;19843;51.040;13.782;2023-12-20T03:01:02;0.60;;;0.60;;
33505;SDS011;19843;51.040;13.782;2023-12-20T03:03:30;0.57;;;0.57;;
33505;SDS011;19843;51.040;13.782;2023-12-20T03:05:58;0.60;;;0.60;;
33505;SDS011;19843;51.040;13.782;2023-12-20T03:08:25;1.42;;;0.65;;
33505;SDS011;19843;51.040;13.782;2023-12-20T03:10:57;0.40;;;0.40;;
33505;SDS011;19843;51.040;13.782;2023-12-20T03:13:27;0.90;;;0.45;;
33505;SDS011;19843;51.040;13.782;2023-12-20T03:15:55;0.52;;;0.52;;
33505;SDS011;19843;51.040;13.782;2023-12-20T03:18:22;0.70;;;0.70;;
33505;SDS011;19843;51.040;13.782;2023-12-20T03:20:50;0.55;;;0.50;;
33505;SDS011;19843;51.040;13.782;2023-12-20T03:23:17;0.50;;;0.50;;
33505;SDS011;19843;51.040;13.782;2023-12-20T03:25:45;0.40;;;0.40;;
33505;SDS011;19843;51.040;13.782;2023-12-20T03:28:14;0.73;;;0.50;;
33505;SDS011;19843;51.040;13.782;2023-12-20T03:30:43;0.52;;;0.52;;
33505;SDS011;19843;51.040;13.782;2023-12-20T03:33:10;0.40;;;0.40;;
33505;SDS011;19843;51.040;13.782;2023-12-20T03:35:38;1.30;;;0.50;;
33505;SDS011;19843;51.040;13.782;2023-12-20T03:38:05;0.45;;;0.45;;
33505;SDS011;19843;51.040;13.782;2023-12-20T03:40:33;0.98;;;0.93;;
33505;SDS011;19843;51.040;13.782;2023-12-20T03:43:00;0.40;;;0.40;;
33505;SDS011;19843;51.040;13.782;2023-12-20T03:45:28;0.40;;;0.40;;
33505;SDS011;19843;51.040;13.782;2023-12-20T03:47:57;0.40;;;0.40;;
33505;SDS011;19843;51.040;13.782;2023-12-20T03:50:25;3.95;;;1.20;;
33505;SDS011;19843;51.040;13.782;2023-12-20T03:52:53;0.40;;;0.40;;
33505;SDS011;19843;51.040;13.782;2023-12-20T03:55:20;0.45;;;0.45;;
33505;SDS011;19843;51.040;13.782;2023-12-20T03:57:48;0.50;;;0.50;;
33505;SDS011;19843;51.040;13.782;2023-12-20T04:00:15;0.30;;;0.30;;
33505;SDS011;19843;51.040;13.782;2023-12-20T04:02:43;0.50;;;0.50;;
33505;SDS011;19843;51.040;13.782;2023-12-20T04:05:12;0.38;;;0.38;;
33505;SDS011;19843;51.040;13.782;2023-12-20T04:07:39;0.60;;;0.60;;
33505;SDS011;19843;51.040;13.782;2023-12-20T04:10:07;0.45;;;0.45;;
33505;SDS011;19843;51.040;13.782;2023-12-20T04:12:35;0.35;;;0.30;;
33505;SDS011;19843;51.040;13.782;2023-12-20T04:15:03;0.40;;;0.40;;
33505;SDS011;19843;51.040;13.782;2023-12-20T04:17:35;0.40;;;0.40;;
33505;SDS011;19843;51.040;13.782;2023-12-20T04:20:03;0.40;;;0.40;;
33505;SDS011;19843;51.040;13.782;2023-12-20T04:22:33;0.50;;;0.50;;
33505;SDS011;19843;51.040;13.782;2023-12-20T04:25:01;0.60;;;0.60;;
33505;SDS011;19843;51.040;13.782;2023-12-20T04:27:28;0.40;;;0.40;;
33505;SDS011;19843;51.040;13.782;2023-12-20T04:29:56;0.80;;;0.40;;
33505;SDS011;19843;51.040;13.782;2023-12-20T04:32:23;0.65;;;0.65;;
33505;SDS011;19843;51.040;13.782;2023-12-20T04:34:51;0.40;;;0.40;;
33505;SDS011;19843;51.040;13.782;2023-12-20T04:37:18;0.65;;;0.65;;
33505;SDS011;19843;51.040;13.782;2023-12-20T04:39:47;0.40;;;0.40;;
33505;SDS011;19843;51.040;13.782;2023-12-20T04:42:15;0.60;;;0.60;;
33505;SDS011;19843;51.040;13.782;2023-12-20T04:44:42;0.50;;;0.40;;
33505;SDS011;19843;51.040;13.782;2023-12-20T04:47:10;0.55;;;0.50;;
33505;SDS011;19843;51.040;13.782;2023-12-20T04:49:38;0.40;;;0.40;;
33505;SDS011;19843;51.040;13.782;2023-12-20T04:52:05;0.40;;;0.40;;
33505;SDS011;19843;51.040;13.782;2023-12-20T04:54:33;0.47;;;0.47;;
33505;SDS011;19843;51.040;13.782;2023-12-20T04:57:02;0.50;;;0.50;;
33505;SDS011;19843;51.040;13.782;2023-12-20T04:59:30;0.50;;;0.50;;
33505;SDS011;19843;51.040;13.782;2023-12-20T05:01:57;0.57;;;0.57;;
33505;SDS011;19843;51.040;13.782;2023-12-20T05:04:25;0.50;;;0.50;;
33505;SDS011;19843;51.040;13.782;2023-12-20T05:06:52;0.47;;;0.47;;
33505;SDS011;19843;51.040;13.782;2023-12-20T05:09:20;0.60;;;0.50;;
33505;SDS011;19843;51.040;13.782;2023-12-20T05:11:47;0.60;;;0.50;;
33505;SDS011;19843;51.040;13.782;2023-12-20T05:14:16;0.47;;;0.47;;
33505;SDS011;19843;51.040;13.782;2023-12-20T05:16:44;0.43;;;0.43;;
33505;SDS011;19843;51.040;13.782;2023-12-20T05:19:11;0.90;;;0.63;;
33505;SDS011;19843;51.040;13.782;2023-12-20T05:21:40;0.43;;;0.30;;
33505;SDS011;19843;51.040;13.782;2023-12-20T05:24:08;0.40;;;0.40;;
33505;SDS011;19843;51.040;13.782;2023-12-20T05:26:35;0.40;;;0.40;;
33505;SDS011;19843;51.040;13.782;2023-12-20T05:29:02;0.57;;;0.57;;
33505;SDS011;19843;51.040;13.782;2023-12-20T05:31:32;0.40;;;0.40;;
33505;SDS011;19843;51.040;13.782;2023-12-20T05:33:59;0.38;;;0.38;;
33505;SDS011;19843;51.040;13.782;2023-12-20T05:36:27;0.55;;;0.50;;
33505;SDS011;19843;51.040;13.782;2023-12-20T05:38:54;0.47;;;0.47;;
33505;SDS011;19843;51.040;13.782;2023-12-20T05:41:22;0.68;;;0.68;;
33505;SDS011;19843;51.040;13.782;2023-12-20T05:43:49;0.45;;;0.45;;
33505;SDS011;19843;51.040;13.782;2023-12-20T05:46:17;0.50;;;0.50;;
33505;SDS011;19843;51.040;13.782;2023-12-20T05:48:46;0.52;;;0.50;;
33505;SDS011;19843;51.040;13.782;2023-12-20T05:51:13;0.82;;;0.57;;
33505;SDS011;19843;51.040;13.782;2023-12-20T05:53:41;0.40;;;0.40;;
33505;SDS011;19843;51.040;13.782;2023-12-20T05:56:08;0.40;;;0.40;;
33505;SDS011;19843;51.040;13.782;2023-12-20T05:58:36;0.40;;;0.40;;
33505;SDS011;19843;51.040;13.782;2023-12-20T06:01:04;0.47;;;0.47;;
33505;SDS011;19843;51.040;13.782;2023-12-20T06:03:32;0.52;;;0.50;;
33505;SDS011;19843;51.040;13.782;2023-12-20T06:06:05;0.50;;;0.50;;
33505;SDS011;19843;51.040;13.782;2023-12-20T06:08:42;0.40;;;0.40;;
33505;SDS011;19843;51.040;13.782;2023-12-20T06:11:10;0.50;;;0.50;;
33505;SDS011;19843;51.040;13.782;2023-12-20T06:13:38;0.40;;;0.40;;
33505;SDS011;19843;51.040;13.782;2023-12-20T06:16:06;0.50;;;0.50;;
33505;SDS011;19843;51.040;13.782;2023-12-20T06:18:34;0.50;;;0.50;;
33505;SDS011;19843;51.040;13.782;2023-12-20T06:21:06;0.63;;;0.45;;
33505;SDS011;19843;51.040;13.782;2023-12-20T06:23:40;0.50;;;0.50;;
33505;SDS011;19843;51.040;13.782;2023-12-20T06:26:10;0.38;;;0.38;;
33505;SDS011;19843;51.040;13.782;2023-12-20T06:28:49;0.60;;;0.60;;
33505;SDS011;19843;51.040;13.782;2023-12-20T06:31:27;0.57;;;0.57;;
33505;SDS011;19843;51.040;13.782;2023-12-20T06:34:01;0.52;;;0.50;;
33505;SDS011;19843;51.040;13.782;2023-12-20T06:36:33;0.60;;;0.60;;
33505;SDS011;19843;51.040;13.782;2023-12-20T06:39:13;0.45;;;0.45;;
33505;SDS011;19843;51.040;13.782;2023-12-20T06:41:54;0.93;;;0.80;;
33505;SDS011;19843;51.040;13.782;2023-12-20T06:44:27;0.82;;;0.70;;
33505;SDS011;19843;51.040;13.782;2023-12-20T06:47:02;0.85;;;0.85;;
33505;SDS011;19843;51.040;13.782;2023-12-20T06:49:35;0.60;;;0.60;;
33505;SDS011;19843;51.040;13.782;2023-12-20T06:52:08;0.75;;;0.75;;
33505;SDS011;19843;51.040;13.782;2023-12-20T06:54:35;2.85;;;1.35;;
33505;SDS011;19843;51.040;13.782;2023-12-20T06:57:05;1.58;;;0.73;;
33505;SDS011;19843;51.040;13.782;2023-12-20T06:59:39;2.35;;;0.88;;
33505;SDS011;19843;51.040;13.782;2023-12-20T07:02:13;2.03;;;0.90;;
33505;SDS011;19843;51.040;13.782;2023-12-20T07:04:46;1.02;;;0.88;;
33505;SDS011;19843;51.040;13.782;2023-12-20T07:07:18;0.88;;;0.80;;
33505;SDS011;19843;51.040;13.782;2023-12-20T07:09:49;0.90;;;0.90;;
33505;SDS011;19843;51.040;13.782;2023-12-20T07:12:17;0.90;;;0.90;;
33505;SDS011;19843;51.040;13.782;2023-12-20T07:14:46;1.30;;;1.20;;
33505;SDS011;19843;51.040;13.782;2023-12-20T07:17:14;2.03;;;0.70;;
33505;SDS011;19843;51.040;13.782;2023-12-20T07:19:42;1.00;;;0.90;;
33505;SDS011;19843;51.040;13.782;2023-12-20T07:22:09;0.98;;;0.80;;
33505;SDS011;19843;51.040;13.782;2023-12-20T07:24:38;0.90;;;0.90;;
33505;SDS011;19843;51.040;13.782;2023-12-20T07:27:05;0.77;;;0.75;;
33505;SDS011;19843;51.040;13.782;2023-12-20T07:29:33;1.45;;;1.20;;
33505;SDS011;19843;51.040;13.782;2023-12-20T07:32:00;1.05;;;1.00;;
33505;SDS011;19843;51.040;13.782;2023-12-20T07:34:28;0.90;;;0.90;;
33505;SDS011;19843;51.040;13.782;2023-12-20T07:36:55;1.10;;;1.00;;
33505;SDS011;19843;51.040;13.782;2023-12-20T07:39:23;1.10;;;1.08;;
33505;SDS011;19843;51.040;13.782;2023-12-20T07:41:52;3.13;;;1.25;;
33505;SDS011;19843;51.040;13.782;2023-12-20T07:44:19;1.10;;;1.05;;
33505;SDS011;19843;51.040;13.782;2023-12-20T07:46:47;1.25;;;1.15;;
33505;SDS011;19843;51.040;13.782;2023-12-20T07:49:15;0.90;;;0.90;;
33505;SDS011;19843;51.040;13.782;2023-12-20T07:51:42;1.55;;;1.00;;
33505;SDS011;19843;51.040;13.782;2023-12-20T07:54:10;0.88;;;0.88;;
33505;SDS011;19843;51.040;13.782;2023-12-20T07:56:38;1.35;;;1.23;;
33505;SDS011;19843;51.040;13.782;2023-12-20T07:59:07;0.98;;;0.95;;
33505;SDS011;19843;51.040;13.782;2023-12-20T08:01:50;1.25;;;0.80;;
33505;SDS011;19843;51.040;13.782;2023-12-20T08:04:18;1.13;;;1.02;;
33505;SDS011;19843;51.040;13.782;2023-12-20T08:06:46;1.38;;;1.27;;
33505;SDS011;19843;51.040;13.782;2023-12-20T08:09:13;1.42;;;0.98;;
33505;SDS011;19843;51.040;13.782;2023-12-20T08:11:44;1.30;;;1.20;;
33505;SDS011;19843;51.040;13.782;2023-12-20T08:14:13;2.65;;;1.10;;
33505;SDS011;19843;51.040;13.782;2023-12-20T08:16:43;1.05;;;1.05;;
33505;SDS011;19843;51.040;13.782;2023-12-20T08:19:11;1.38;;;0.98;;
33505;SDS011;19843;51.040;13.782;2023-12-20T08:21:38;1.30;;;1.20;;
33505;SDS011;19843;51.040;13.782;2023-12-20T08:24:06;1.60;;;1.50;;
33505;SDS011;19843;51.040;13.782;2023-12-20T08:26:34;1.58;;;0.90;;
33505;SDS011;19843;51.040;13.782;2023-12-20T08:29:01;1.27;;;0.90;;
33505;SDS011;19843;51.040;13.782;2023-12-20T08:31:31;1.00;;;0.90;;
33505;SDS011;19843;51.040;13.782;2023-12-20T08:33:59;1.63;;;1.13;;
33505;SDS011;19843;51.040;13.782;2023-12-20T08:36:28;0.77;;;0.77;;
33505;SDS011;19843;51.040;13.782;2023-12-20T08:38:55;1.00;;;0.90;;
33505;SDS011;19843;51.040;13.782;2023-12-20T08:41:22;1.38;;;0.90;;
33505;SDS011;19843;51.040;13.782;2023-12-20T08:43:50;0.98;;;0.73;;
33505;SDS011;19843;51.040;13.782;2023-12-20T08:46:17;3.05;;;1.00;;
33505;SDS011;19843;51.040;13.782;2023-12-20T08:48:46;1.15;;;1.02;;
33505;SDS011;19843;51.040;13.782;2023-12-20T08:51:14;1.00;;;0.82;;
33505;SDS011;19843;51.040;13.782;2023-12-20T08:53:42;2.38;;;1.00;;
33505;SDS011;19843;51.040;13.782;2023-12-20T08:56:11;2.13;;;0.90;;
33505;SDS011;19843;51.040;13.782;2023-12-20T08:58:39;1.00;;;0.77;;
33505;SDS011;19843;51.040;13.782;2023-12-20T09:01:06;0.70;;;0.57;;
33505;SDS011;19843;51.040;13.782;2023-12-20T09:03:34;0.75;;;0.68;;
33505;SDS011;19843;51.040;13.782;2023-12-20T09:06:03;4.13;;;0.80;;
33505;SDS011;19843;51.040;13.782;2023-12-20T09:08:31;5.05;;;1.00;;
33505;SDS011;19843;51.040;13.782;2023-12-20T09:10:59;1.75;;;0.70;;
33505;SDS011;19843;51.040;13.782;2023-12-20T09:13:27;1.40;;;0.82;;
33505;SDS011;19843;51.040;13.782;2023-12-20T09:15:55;0.70;;;0.70;;
33505;SDS011;19843;51.040;13.782;2023-12-20T09:18:23;1.65;;;0.70;;
33505;SDS011;19843;51.040;13.782;2023-12-20T09:20:51;0.50;;;0.50;;
33505;SDS011;19843;51.040;13.782;2023-12-20T09:23:20;0.60;;;0.60;;
33505;SDS011;19843;51.040;13.782;2023-12-20T09:25:47;1.70;;;0.75;;
33505;SDS011;19843;51.040;13.782;2023-12-20T09:28:14;0.82;;;0.75;;
33505;SDS011;19843;51.040;13.782;2023-12-20T09:30:42;1.02;;;1.02;;
33505;SDS011;19843;51.040;13.782;2023-12-20T09:33:12;0.95;;;0.85;;
33505;SDS011;19843;51.040;13.782;2023-12-20T09:35:39;0.80;;;0.80;;
33505;SDS011;19843;51.040;13.782;2023-12-20T09:38:07;0.50;;;0.50;;
33505;SDS011;19843;51.040;13.782;2023-12-20T09:40:36;2.05;;;1.30;;
33505;SDS011;19843;51.040;13.782;2023-12-20T09:43:08;3.15;;;0.80;;
33505;SDS011;19843;51.040;13.782;2023-12-20T09:45:38;1.55;;;0.70;;
33505;SDS011;19843;51.040;13.782;2023-12-20T09:48:07;5.80;;;0.82;;
33505;SDS011;19843;51.040;13.782;2023-12-20T09:50:37;1.15;;;0.93;;
33505;SDS011;19843;51.040;13.782;2023-12-20T09:53:05;1.65;;;0.85;;
33505;SDS011;19843;51.040;13.782;2023-12-20T09:55:36;1.30;;;1.20;;
33505;SDS011;19843;51.040;13.782;2023-12-20T09:58:05;1.08;;;1.00;;
33505;SDS011;19843;51.040;13.782;2023-12-20T10:00:34;3.40;;;1.20;;
33505;SDS011;19843;51.040;13.782;2023-12-20T10:03:02;3.22;;;1.20;;
33505;SDS011;19843;51.040;13.782;2023-12-20T10:05:33;1.73;;;1.00;;
33505;SDS011;19843;51.040;13.782;2023-12-20T10:08:02;1.00;;;0.88;;
33505;SDS011;19843;51.040;13.782;2023-12-20T10:10:30;0.90;;;0.90;;
33505;SDS011;19843;51.040;13.782;2023-12-20T10:13:12;1.17;;;1.08;;
33505;SDS011;19843;51.040;13.782;2023-12-20T10:15:40;1.52;;;0.80;;
33505;SDS011;19843;51.040;13.782;2023-12-20T10:18:09;0.82;;;0.82;;
33505;SDS011;19843;51.040;13.782;2023-12-20T10:20:37;1.00;;;0.90;;
33505;SDS011;19843;51.040;13.782;2023-12-20T10:23:05;1.85;;;0.90;;
33505;SDS011;19843;51.040;13.782;2023-12-20T10:25:32;2.70;;;0.88;;
33505;SDS011;19843;51.040;13.782;2023-12-20T10:28:12;0.80;;;0.80;;
33505;SDS011;19843;51.040;13.782;2023-12-20T10:30:41;4.03;;;1.48;;
33505;SDS011;19843;51.040;13.782;2023-12-20T10:33:09;1.83;;;1.25;;
33505;SDS011;19843;51.040;13.782;2023-12-20T10:35:38;1.08;;;0.85;;
33505;SDS011;19843;51.040;13.782;2023-12-20T10:38:11;1.48;;;0.75;;
33505;SDS011;19843;51.040;13.782;2023-12-20T10:40:40;1.23;;;1.00;;
33505;SDS011;19843;51.040;13.782;2023-12-20T10:43:09;1.73;;;0.90;;
33505;SDS011;19843;51.040;13.782;2023-12-20T10:45:38;1.13;;;0.95;;
33505;SDS011;19843;51.040;13.782;2023-12-20T10:48:06;1.58;;;1.20;;
33505;SDS011;19843;51.040;13.782;2023-12-20T10:50:34;1.38;;;0.95;;
33505;SDS011;19843;51.040;13.782;2023-12-20T10:53:05;3.63;;;0.93;;
33505;SDS011;19843;51.040;13.782;2023-12-20T10:55:33;0.80;;;0.80;;
33505;SDS011;19843;51.040;13.782;2023-12-20T10:58:02;1.65;;;1.40;;
33505;SDS011;19843;51.040;13.782;2023-12-20T11:00:35;2.30;;;1.20;;
33505;SDS011;19843;51.040;13.782;2023-12-20T11:03:08;3.28;;;2.47;;
33505;SDS011;19843;51.040;13.782;2023-12-20T11:05:38;1.85;;;0.82;;
33505;SDS011;19843;51.040;13.782;2023-12-20T11:08:17;1.48;;;0.90;;
33505;SDS011;19843;51.040;13.782;2023-12-20T11:10:51;1.20;;;0.88;;
33505;SDS011;19843;51.040;13.782;2023-12-20T11:13:27;2.75;;;1.08;;
33505;SDS011;19843;51.040;13.782;2023-12-20T11:16:01;2.72;;;1.10;;
33505;SDS011;19843;51.040;13.782;2023-12-20T11:18:30;1.08;;;0.90;;
33505;SDS011;19843;51.040;13.782;2023-12-20T11:21:00;0.93;;;0.93;;
33505;SDS011;19843;51.040;13.782;2023-12-20T11:23:29;1.95;;;1.20;;
33505;SDS011;19843;51.040;13.782;2023-12-20T11:25:56;1.30;;;1.05;;
33505;SDS011;19843;51.040;13.782;2023-12-20T11:28:25;1.17;;;1.10;;
33505;SDS011;19843;51.040;13.782;2023-12-20T11:30:54;2.05;;;0.85;;
33505;SDS011;19843;51.040;13.782;2023-12-20T11:33:24;1.42;;;1.10;;
33505;SDS011;19843;51.040;13.782;2023-12-20T11:35:55;0.70;;;0.70;;
33505;SDS011;19843;51.040;13.782;2023-12-20T11:38:24;1.05;;;0.95;;
33505;SDS011;19843;51.040;13.782;2023-12-20T11:40:53;1.85;;;1.00;;
33505;SDS011;19843;51.040;13.782;2023-12-20T11:43:30;1.33;;;1.23;;
33505;SDS011;19843;51.040;13.782;2023-12-20T11:46:03;1.67;;;1.02;;
33505;SDS011;19843;51.040;13.782;2023-12-20T11:48:35;10.60;;;1.10;;
33505;SDS011;19843;51.040;13.782;2023-12-20T11:51:08;1.95;;;1.17;;
33505;SDS011;19843;51.040;13.782;2023-12-20T11:53:36;1.02;;;0.90;;
33505;SDS011;19843;51.040;13.782;2023-12-20T11:56:05;1.23;;;1.02;;
33505;SDS011;19843;51.040;13.782;2023-12-20T11:58:34;2.08;;;1.10;;
33505;SDS011;19843;51.040;13.782;2023-12-20T12:01:03;2.47;;;1.35;;
33505;SDS011;19843;51.040;13.782;2023-12-20T12:03:35;2.47;;;1.23;;
33505;SDS011;19843;51.040;13.782;2023-12-20T12:06:03;3.03;;;1.08;;
33505;SDS011;19843;51.040;13.782;2023-12-20T12:08:31;0.90;;;0.90;;
33505;SDS011;19843;51.040;13.782;2023-12-20T12:10:59;4.13;;;1.25;;
33505;SDS011;19843;51.040;13.782;2023-12-20T12:13:27;3.25;;;1.30;;
33505;SDS011;19843;51.040;13.782;2023-12-20T12:15:55;2.72;;;1.27;;
33505;SDS011;19843;51.040;13.782;2023-12-20T12:18:23;2.75;;;1.40;;
33505;SDS011;19843;51.040;13.782;2023-12-20T12:21:00;1.63;;;1.05;;
33505;SDS011;19843;51.040;13.782;2023-12-20T12:23:35;1.13;;;1.10;;
33505;SDS011;19843;51.040;13.782;2023-12-20T12:26:03;1.42;;;1.33;;
33505;SDS011;19843;51.040;13.782;2023-12-20T12:28:31;1.00;;;1.00;;
33505;SDS011;19843;51.040;13.782;2023-12-20T12:30:59;1.92;;;1.02;;
33505;SDS011;19843;51.040;13.782;2023-12-20T12:33:27;1.30;;;1.13;;
33505;SDS011;19843;51.040;13.782;2023-12-20T12:35:55;4.38;;;1.67;;
33505;SDS011;19843;51.040;13.782;2023-12-20T12:38:24;2.50;;;1.20;;
33505;SDS011;19843;51.040;13.782;2023-12-20T12:40:51;2.65;;;1.20;;
33505;SDS011;19843;51.040;13.782;2023-12-20T12:43:20;1.30;;;1.20;;
33505;SDS011;19843;51.040;13.782;2023-12-20T12:45:49;2.25;;;1.20;;
33505;SDS011;19843;51.040;13.782;2023-12-20T12:48:16;3.75;;;1.25;;
33505;SDS011;19843;51.040;13.782;2023-12-20T12:50:45;1.73;;;0.77;;
33505;SDS011;19843;51.040;13.782;2023-12-20T12:53:12;1.35;;;1.25;;
33505;SDS011;19843;51.040;13.782;2023-12-20T12:55:41;2.25;;;0.88;;
33505;SDS011;19843;51.040;13.782;2023-12-20T12:58:09;1.25;;;0.77;;
33505;SDS011;19843;51.040;13.782;2023-12-20T13:00:36;1.58;;;1.10;;
33505;SDS011;19843;51.040;13.782;2023-12-20T13:03:04;2.45;;;0.98;;
33505;SDS011;19843;51.040;13.782;2023-12-20T13:05:31;1.10;;;0.90;;
33505;SDS011;19843;51.040;13.782;2023-12-20T13:08:05;1.95;;;1.20;;
33505;SDS011;19843;51.040;13.782;2023-12-20T13:10:34;2.17;;;1.20;;
33505;SDS011;19843;51.040;13.782;2023-12-20T13:13:06;2.60;;;0.95;;
33505;SDS011;19843;51.040;13.782;2023-12-20T13:15:35;5.20;;;1.55;;
33505;SDS011;19843;51.040;13.782;2023-12-20T13:18:03;1.20;;;0.98;;
33505;SDS011;19843;51.040;13.782;2023-12-20T13:20:32;1.02;;;1.00;;
33505;SDS011;19843;51.040;13.782;2023-12-20T13:23:00;1.40;;;1.10;;
33505;SDS011;19843;51.040;13.782;2023-12-20T13:25:27;1.02;;;0.90;;
33505;SDS011;19843;51.040;13.782;2023-12-20T13:27:55;2.15;;;0.88;;
33505;SDS011;19843;51.040;13.782;2023-12-20T13:30:24;1.17;;;0.85;;
33505;SDS011;19843;51.040;13.782;2023-12-20T13:32:52;2.22;;;0.98;;
33505;SDS011;19843;51.040;13.782;2023-12-20T13:35:19;1.70;;;0.90;;
33505;SDS011;19843;51.040;13.782;2023-12-20T13:37:47;1.13;;;0.93;;
33505;SDS011;19843;51.040;13.782;2023-12-20T13:40:15;3.53;;;0.65;;
33505;SDS011;19843;51.040;13.782;2023-12-20T13:42:43;1.95;;;1.13;;
33505;SDS011;19843;51.040;13.782;2023-12-20T13:45:11;2.58;;;1.13;;
33505;SDS011;19843;51.040;13.782;2023-12-20T13:47:40;1.63;;;1.20;;
33505;SDS011;19843;51.040;13.782;2023-12-20T13:50:08;1.38;;;0.93;;
33505;SDS011;19843;51.040;13.782;2023-12-20T13:52:36;2.45;;;1.30;;
33505;SDS011;19843;51.040;13.782;2023-12-20T13:55:05;2.13;;;0.88;;
33505;SDS011;19843;51.040;13.782;2023-12-20T13:57:34;1.02;;;0.70;;
33505;SDS011;19843;51.040;13.782;2023-12-20T14:00:09;1.98;;;1.05;;
33505;SDS011;19843;51.040;13.782;2023-12-20T14:02:42;1.60;;;1.13;;
33505;SDS011;19843;51.040;13.782;2023-12-20T14:05:10;2.28;;;1.00;;
33505;SDS011;19843;51.040;13.782;2023-12-20T14:07:38;2.17;;;0.90;;
33505;SDS011;19843;51.040;13.782;2023-12-20T14:10:06;2.45;;;0.93;;
33505;SDS011;19843;51.040;13.782;2023-12-20T14:12:35;2.58;;;1.10;;
33505;SDS011;19843;51.040;13.782;2023-12-20T14:15:04;1.48;;;1.10;;
33505;SDS011;19843;51.040;13.782;2023-12-20T14:17:36;3.10;;;0.95;;
33505;SDS011;19843;51.040;13.782;2023-12-20T14:20:05;3.70;;;1.67;;
33505;SDS011;19843;51.040;13.782;2023-12-20T14:22:34;0.80;;;0.80;;
33505;SDS011;19843;51.040;13.782;2023-12-20T14:25:03;1.13;;;0.90;;
33505;SDS011;19843;51.040;13.782;2023-12-20T14:27:32;2.15;;;1.40;;
33505;SDS011;19843;51.040;13.782;2023-12-20T14:29:59;1.50;;;0.90;;
33505;SDS011;19843;51.040;13.782;2023-12-20T14:32:27;1.40;;;0.75;;
33505;SDS011;19843;51.040;13.782;2023-12-20T14:34:55;0.80;;;0.80;;
33505;SDS011;19843;51.040;13.782;2023-12-20T14:37:23;3.67;;;1.25;;
33505;SDS011;19843;51.040;13.782;2023-12-20T14:39:51;1.80;;;0.90;;
33505;SDS011;19843;51.040;13.782;2023-12-20T14:42:19;1.25;;;0.65;;